createdAt,value
2018-02-14T00:00:40.699Z,35.13
2018-02-14T00:03:07.238Z,35.65
2018-02-14T00:05:33.454Z,43.53
2018-02-14T00:07:59.680Z,39.22
2018-02-14T00:10:25.902Z,30.60
2018-02-14T00:12:52.130Z,38.20
2018-02-14T00:15:18.364Z,39.53
2018-02-14T00:17:45.325Z,33.63
2018-02-14T00:20:12.284Z,39.20
2018-02-14T00:22:39.266Z,32.80
2018-02-14T00:25:05.512Z,37.40
2018-02-14T00:27:31.740Z,39.95
2018-02-14T00:29:57.952Z,46.13
2018-02-14T00:32:24.918Z,37.55
2018-02-14T00:34:51.871Z,31.30
2018-02-14T00:37:18.824Z,32.63
2018-02-14T00:39:45.055Z,41.28
2018-02-14T00:42:12.009Z,35.25
2018-02-14T00:44:38.988Z,39.25
2018-02-14T00:47:05.944Z,37.13
2018-02-14T00:49:32.910Z,32.47
2018-02-14T00:51:59.163Z,40.12
2018-02-14T00:54:25.374Z,47.67
2018-02-14T00:56:52.344Z,33.10
2018-02-14T00:59:19.311Z,35.55
2018-02-14T01:01:45.518Z,32.55
2018-02-14T01:04:11.765Z,35.67
2018-02-14T01:06:38.739Z,39.45
2018-02-14T01:09:04.941Z,32.67
2018-02-14T01:11:31.157Z,42.05
2018-02-14T01:13:57.375Z,42.72
2018-02-14T01:16:23.587Z,40.78
2018-02-14T01:18:50.530Z,39.47
2018-02-14T01:21:16.745Z,46.40
2018-02-14T01:23:42.989Z,42.33
2018-02-14T01:26:09.203Z,44.28
2018-02-14T01:28:35.480Z,41.45
2018-02-14T01:31:01.683Z,39.33
2018-02-14T01:33:27.903Z,44.22
2018-02-14T01:35:54.139Z,41.17
2018-02-14T01:38:21.112Z,45.42
2018-02-14T01:40:47.335Z,36.85
2018-02-14T01:43:14.285Z,39.60
2018-02-14T01:45:40.503Z,42.75
2018-02-14T01:48:06.735Z,39.15
2018-02-14T01:50:37.783Z,49.53
2018-02-14T01:53:04.019Z,35.75
2018-02-14T01:55:30.983Z,35.22
2018-02-14T01:57:57.216Z,35.90
2018-02-14T02:00:23.453Z,43.40
2018-02-14T02:02:49.666Z,31.95
2018-02-14T02:05:15.918Z,39.80
2018-02-14T02:07:42.146Z,38.20
2018-02-14T02:10:08.367Z,39.95
2018-02-14T02:12:35.366Z,36.33
2018-02-14T02:15:01.590Z,36.30
2018-02-14T02:17:27.828Z,32.15
2018-02-14T02:19:54.066Z,50.70
2018-02-14T02:22:21.044Z,31.37
2018-02-14T02:24:47.272Z,38.33
2018-02-14T02:27:13.506Z,39.78
2018-02-14T02:29:39.740Z,34.67
2018-02-14T02:32:05.959Z,34.63
2018-02-14T02:34:32.932Z,42.08
2018-02-14T02:36:59.168Z,37.85
2018-02-14T02:39:37.701Z,34.42
2018-02-14T02:42:03.930Z,41.45
2018-02-14T02:44:30.893Z,42.28
2018-02-14T02:46:57.144Z,42.78
2018-02-14T02:49:23.366Z,51.72
2018-02-14T02:51:50.330Z,46.08
2018-02-14T02:54:16.552Z,50.60
2018-02-14T02:56:43.800Z,46.83
2018-02-14T02:59:10.037Z,49.55
2018-02-14T03:01:36.245Z,43.20
2018-02-14T03:04:02.483Z,41.15
2018-02-14T03:06:28.720Z,42.85
2018-02-14T03:08:55.208Z,45.33
2018-02-14T03:11:21.426Z,46.13
2018-02-14T03:13:47.650Z,57.92
2018-02-14T03:16:13.862Z,45.75
2018-02-14T03:18:40.062Z,38.10
2018-02-14T03:21:06.304Z,47.50
2018-02-14T03:23:32.514Z,42.88
2018-02-14T03:25:58.748Z,41.33
2018-02-14T03:28:25.001Z,39.90
2018-02-14T03:30:51.202Z,41.33
2018-02-14T03:33:17.459Z,38.90
2018-02-14T03:35:43.687Z,40.15
2018-02-14T03:38:09.909Z,45.50
2018-02-14T03:40:36.879Z,40.25
2018-02-14T03:43:03.851Z,44.15
2018-02-14T03:45:30.116Z,39.20
2018-02-14T03:47:56.316Z,39.72
2018-02-14T03:50:22.527Z,40.05
2018-02-14T03:52:48.752Z,46.97
2018-02-14T03:55:14.974Z,44.22
2018-02-14T03:57:41.251Z,43.35
2018-02-14T04:00:07.512Z,43.97
2018-02-14T04:02:34.463Z,47.08
2018-02-14T04:05:01.459Z,42.22
2018-02-14T04:07:27.659Z,39.78
2018-02-14T04:09:54.891Z,47.00
2018-02-14T04:12:21.110Z,47.08
2018-02-14T04:14:47.340Z,51.17
2018-02-14T04:17:13.577Z,51.37
2018-02-14T04:19:39.796Z,46.97
2018-02-14T04:22:06.761Z,46.22
2018-02-14T04:24:33.007Z,46.37
2018-02-14T04:26:59.255Z,47.53
2018-02-14T04:29:25.480Z,44.65
2018-02-14T04:31:52.448Z,42.33
2018-02-14T04:34:18.658Z,44.78
2018-02-14T04:36:45.602Z,37.22
2018-02-14T04:39:11.832Z,37.80
2018-02-14T04:41:38.051Z,38.42
2018-02-14T04:44:04.280Z,41.63
2018-02-14T04:46:30.517Z,43.60
2018-02-14T04:48:56.724Z,40.33
2018-02-14T04:51:23.716Z,38.05
2018-02-14T04:53:49.930Z,29.95
2018-02-14T04:56:16.887Z,40.90
2018-02-14T04:58:43.129Z,38.78
2018-02-14T05:01:09.406Z,37.67
2018-02-14T05:03:35.633Z,37.83
2018-02-14T05:06:01.854Z,42.70
2018-02-14T05:08:28.080Z,44.28
2018-02-14T05:10:55.038Z,40.58
2018-02-14T05:13:21.990Z,31.50
2018-02-14T05:15:48.971Z,34.83
2018-02-14T05:18:15.176Z,38.22
2018-02-14T05:20:42.122Z,34.53
2018-02-14T05:23:08.416Z,35.55
2018-02-14T05:25:34.629Z,37.47
2018-02-14T05:28:01.650Z,34.42
2018-02-14T05:30:27.860Z,40.45
2018-02-14T05:32:54.109Z,38.75
2018-02-14T05:35:20.322Z,35.97
2018-02-14T05:37:46.522Z,48.38
2018-02-14T05:40:12.744Z,51.37
2018-02-14T05:42:38.950Z,38.97
2018-02-14T05:45:05.201Z,37.92
2018-02-14T05:47:31.418Z,41.03
2018-02-14T05:49:57.642Z,34.00
2018-02-14T05:52:24.593Z,46.63
2018-02-14T05:54:51.550Z,44.13
2018-02-14T05:57:18.502Z,39.90
2018-02-14T05:59:44.711Z,41.47
2018-02-14T06:02:10.960Z,36.78
2018-02-14T06:04:37.170Z,32.75
2018-02-14T06:07:03.391Z,39.55
2018-02-14T06:09:29.621Z,37.40
2018-02-14T06:11:56.570Z,30.48
2018-02-14T06:14:23.542Z,27.40
2018-02-14T06:16:49.744Z,33.15
2018-02-14T06:19:15.965Z,43.00
2018-02-14T06:21:42.207Z,46.45
2018-02-14T06:24:08.411Z,39.15
2018-02-14T06:26:35.400Z,56.85
2018-02-14T06:29:01.615Z,50.65
2018-02-14T06:31:27.831Z,46.10
2018-02-14T06:33:54.793Z,61.90
2018-02-14T06:36:21.752Z,46.63
2018-02-14T06:38:47.979Z,49.47
2018-02-14T06:41:14.241Z,49.40
2018-02-14T06:43:40.453Z,49.40
2018-02-14T06:46:06.685Z,46.75
2018-02-14T06:48:32.905Z,55.25
2018-02-14T06:50:59.143Z,71.78
2018-02-14T06:53:25.343Z,61.63
2018-02-14T06:55:51.576Z,69.62
2018-02-14T06:58:17.812Z,52.70
2018-02-14T07:00:44.790Z,39.83
2018-02-14T07:03:11.021Z,43.70
2018-02-14T07:05:37.234Z,49.03
2018-02-14T07:08:04.206Z,39.63
2018-02-14T07:10:30.454Z,43.80
2018-02-14T07:12:57.402Z,40.22
2018-02-14T07:15:24.390Z,53.38
2018-02-14T07:17:50.622Z,44.88
2018-02-14T07:20:16.830Z,47.60
2018-02-14T07:22:43.828Z,49.17
2018-02-14T07:25:10.035Z,48.35
2018-02-14T07:27:37.030Z,49.00
2018-02-14T07:30:03.246Z,50.42
2018-02-14T07:32:29.442Z,41.05
2018-02-14T07:34:55.652Z,42.22
2018-02-14T07:37:21.874Z,50.20
2018-02-14T07:39:48.112Z,48.70
2018-02-14T07:42:14.331Z,64.00
2018-02-14T07:44:41.283Z,52.80
2018-02-14T07:47:07.482Z,47.78
2018-02-14T07:49:33.684Z,47.83
2018-02-14T07:51:59.898Z,47.58
2018-02-14T07:54:26.864Z,49.35
2018-02-14T07:56:53.841Z,46.78
2018-02-14T07:59:20.048Z,53.78
2018-02-14T08:01:46.303Z,50.55
2018-02-14T08:04:13.289Z,45.97
2018-02-14T08:06:39.495Z,49.30
2018-02-14T08:09:06.521Z,57.00
2018-02-14T08:11:32.706Z,50.30
2018-02-14T08:13:59.692Z,50.28
2018-02-14T08:16:25.923Z,46.58
2018-02-14T08:18:52.144Z,45.83
2018-02-14T08:21:18.381Z,47.65
2018-02-14T08:23:45.345Z,40.80
2018-02-14T08:26:11.588Z,33.55
2018-02-14T08:28:37.799Z,33.00
2018-02-14T08:31:04.025Z,33.20
2018-02-14T08:33:30.277Z,40.22
2018-02-14T08:35:56.513Z,24.87
2018-02-14T08:38:22.723Z,28.20
2018-02-14T08:40:49.705Z,28.38
2018-02-14T08:43:15.918Z,22.75
2018-02-14T08:45:42.128Z,32.20
2018-02-14T08:48:08.374Z,34.90
2018-02-14T08:50:34.563Z,26.92
2018-02-14T08:53:00.779Z,22.52
2018-02-14T08:55:26.988Z,24.23
2018-02-14T08:57:53.207Z,26.12
2018-02-14T09:00:20.238Z,35.17
2018-02-14T09:02:47.212Z,26.92
2018-02-14T09:05:13.447Z,26.62
2018-02-14T09:07:39.709Z,23.75
2018-02-14T09:10:06.679Z,29.20
2018-02-14T09:12:33.673Z,27.50
2018-02-14T09:14:59.937Z,25.27
2018-02-14T09:17:26.209Z,23.40
2018-02-14T09:19:53.159Z,56.53
2018-02-14T09:22:19.390Z,35.08
2018-02-14T09:24:45.626Z,28.25
2018-02-14T09:27:11.864Z,31.27
2018-02-14T09:29:38.104Z,23.17
2018-02-14T09:32:04.320Z,28.02
2018-02-14T09:34:30.582Z,24.75
2018-02-14T09:36:56.824Z,26.37
2018-02-14T09:39:23.054Z,23.65
2018-02-14T09:41:49.269Z,27.45
2018-02-14T09:44:15.504Z,31.60
2018-02-14T09:46:41.790Z,26.05
2018-02-14T09:49:08.060Z,30.67
2018-02-14T09:51:34.309Z,28.65
2018-02-14T09:54:00.530Z,27.58
2018-02-14T09:56:26.773Z,29.37
2018-02-14T09:58:53.761Z,29.02
2018-02-14T10:01:20.007Z,25.27
2018-02-14T10:03:46.238Z,35.63
2018-02-14T10:06:12.462Z,27.13
2018-02-14T10:08:38.687Z,34.40
2018-02-14T10:11:05.686Z,27.27
2018-02-14T10:13:31.894Z,33.58
2018-02-14T10:15:58.859Z,27.62
2018-02-14T10:18:25.812Z,29.30
2018-02-14T10:20:52.795Z,35.42
2018-02-14T10:23:19.021Z,29.55
2018-02-14T10:25:45.245Z,30.73
2018-02-14T10:28:12.204Z,30.88
2018-02-14T10:30:39.168Z,38.40
2018-02-14T10:33:06.123Z,24.95
2018-02-14T10:35:32.774Z,29.83
2018-02-14T10:37:59.732Z,29.37
2018-02-14T10:40:26.691Z,32.08
2018-02-14T10:42:52.927Z,24.33
2018-02-14T10:45:19.897Z,29.02
2018-02-14T10:47:46.117Z,19.67
2018-02-14T10:50:12.329Z,19.65
2018-02-14T10:52:38.631Z,21.60
2018-02-14T10:55:04.855Z,23.52
2018-02-14T10:57:31.059Z,19.37
2018-02-14T10:59:57.297Z,25.98
2018-02-14T11:02:23.599Z,20.65
2018-02-14T11:04:56.037Z,19.83
2018-02-14T11:07:22.274Z,20.67
2018-02-14T11:09:48.498Z,20.40
2018-02-14T11:12:14.712Z,25.95
2018-02-14T11:14:40.944Z,18.35
2018-02-14T11:17:07.193Z,23.60
2018-02-14T11:19:33.445Z,20.70
2018-02-14T11:21:59.672Z,18.62
2018-02-14T11:24:25.931Z,23.55
2018-02-14T11:26:52.200Z,24.48
2018-02-14T11:29:18.404Z,22.73
2018-02-14T11:31:44.640Z,27.92
2018-02-14T11:34:10.875Z,21.98
2018-02-14T11:36:37.116Z,24.30
2018-02-14T11:39:03.716Z,25.25
2018-02-14T11:41:30.734Z,16.40
2018-02-14T11:43:56.949Z,18.62
2018-02-14T11:46:23.177Z,22.67
2018-02-14T11:48:49.383Z,19.35
2018-02-14T11:51:16.373Z,16.90
2018-02-14T11:53:42.609Z,21.95
2018-02-14T11:56:08.848Z,21.23
2018-02-14T11:58:35.824Z,18.35
2018-02-14T12:01:02.084Z,23.80
2018-02-14T12:03:28.308Z,21.12
2018-02-14T12:05:54.500Z,26.50
2018-02-14T12:08:20.714Z,20.52
2018-02-14T12:10:46.958Z,19.83
2018-02-14T12:13:13.142Z,22.37
2018-02-14T12:15:40.156Z,22.00
2018-02-14T12:18:06.383Z,20.45
2018-02-14T12:20:32.601Z,25.70
2018-02-14T12:22:58.827Z,24.35
2018-02-14T12:25:25.041Z,25.95
2018-02-14T12:27:51.275Z,30.40
2018-02-14T12:30:18.288Z,24.23
2018-02-14T12:32:44.530Z,24.52
2018-02-14T12:35:10.757Z,26.25
2018-02-14T12:37:36.971Z,32.00
2018-02-14T12:40:03.211Z,22.50
2018-02-14T12:42:30.199Z,26.27
2018-02-14T12:44:56.435Z,26.52
2018-02-14T12:47:22.675Z,25.90
2018-02-14T12:49:49.203Z,26.45
2018-02-14T12:52:16.173Z,25.17
2018-02-14T12:54:42.380Z,22.67
2018-02-14T12:57:08.629Z,22.83
2018-02-14T12:59:35.589Z,22.65
2018-02-14T13:02:02.557Z,25.67
2018-02-14T13:04:29.511Z,33.45
2018-02-14T13:06:56.490Z,23.27
2018-02-14T13:09:22.754Z,27.87
2018-02-14T13:11:48.983Z,25.40
2018-02-14T13:14:15.238Z,30.60
2018-02-14T13:16:41.470Z,27.48
2018-02-14T13:19:07.744Z,27.27
2018-02-14T13:21:33.970Z,30.67
2018-02-14T13:24:00.921Z,22.50
2018-02-14T13:26:27.205Z,27.60
2018-02-14T13:28:54.148Z,24.60
2018-02-14T13:31:20.416Z,22.08
2018-02-14T13:33:47.378Z,31.77
2018-02-14T13:36:14.359Z,32.17
2018-02-14T13:38:40.560Z,28.08
2018-02-14T13:41:06.796Z,29.02
2018-02-14T13:43:33.031Z,28.73
2018-02-14T13:45:59.242Z,42.15
2018-02-14T13:48:25.472Z,36.60
2018-02-14T13:50:51.712Z,30.58
2018-02-14T13:53:17.946Z,36.72
2018-02-14T13:55:44.174Z,35.88
2018-02-14T13:58:10.387Z,37.35
2018-02-14T14:00:37.360Z,32.25
2018-02-14T14:03:03.576Z,31.25
2018-02-14T14:05:29.838Z,32.88
2018-02-14T14:07:56.081Z,33.00
2018-02-14T14:10:22.302Z,33.55
2018-02-14T14:12:49.306Z,32.08
2018-02-14T14:15:15.522Z,37.97
2018-02-14T14:17:42.764Z,36.65
2018-02-14T14:20:09.722Z,34.30
2018-02-14T14:22:35.939Z,37.45
2018-02-14T14:25:02.186Z,32.78
2018-02-14T14:27:28.426Z,34.85
2018-02-14T14:29:54.688Z,27.92
2018-02-14T14:32:21.668Z,29.87
2018-02-14T14:34:47.880Z,26.62
2018-02-14T14:37:14.868Z,29.73
2018-02-14T14:39:41.102Z,27.25
2018-02-14T14:42:07.371Z,30.42
2018-02-14T14:44:33.620Z,32.78
2018-02-14T14:47:00.307Z,25.75
2018-02-14T14:49:26.532Z,25.55
2018-02-14T14:51:52.770Z,22.42
2018-02-14T14:54:18.994Z,28.58
2018-02-14T14:56:45.443Z,25.95
2018-02-14T14:59:11.686Z,30.98
2018-02-14T15:01:37.924Z,26.08
2018-02-14T15:04:04.172Z,25.77
2018-02-14T15:06:30.417Z,23.85
2018-02-14T15:08:56.680Z,29.05
2018-02-14T15:11:23.663Z,33.38
2018-02-14T15:13:49.904Z,28.12
2018-02-14T15:16:16.115Z,28.33
2018-02-14T15:18:42.341Z,29.23
2018-02-14T15:21:08.594Z,41.83
2018-02-14T15:23:34.859Z,32.53
2018-02-14T15:26:01.097Z,27.10
2018-02-14T15:28:28.043Z,31.87
2018-02-14T15:30:54.275Z,30.48
2018-02-14T15:33:20.499Z,30.70
2018-02-14T15:35:46.749Z,29.33
2018-02-14T15:38:13.001Z,32.83
2018-02-14T15:40:39.959Z,47.22
2018-02-14T15:43:06.941Z,43.60
2018-02-14T15:45:33.207Z,30.40
2018-02-14T15:47:59.454Z,28.42
2018-02-14T15:50:25.677Z,35.50
2018-02-14T15:52:51.916Z,32.45
2018-02-14T15:55:18.195Z,28.95
2018-02-14T15:57:44.431Z,28.35
2018-02-14T16:00:10.689Z,35.10
2018-02-14T16:02:37.669Z,40.90
2018-02-14T16:05:04.709Z,41.85
2018-02-14T16:07:31.724Z,41.17
2018-02-14T16:09:57.967Z,41.17
2018-02-14T16:12:24.211Z,40.30
2018-02-14T16:14:50.455Z,46.47
2018-02-14T16:17:16.686Z,36.97
2018-02-14T16:19:42.923Z,35.70
2018-02-14T16:22:09.172Z,42.70
2018-02-14T16:24:35.404Z,42.13
2018-02-14T16:27:01.644Z,43.45
2018-02-14T16:29:27.906Z,43.22
2018-02-14T16:31:54.866Z,42.42
2018-02-14T16:34:21.101Z,42.15
2018-02-14T16:36:47.378Z,43.65
2018-02-14T16:39:13.630Z,44.88
2018-02-14T16:41:39.904Z,46.72
2018-02-14T16:44:06.138Z,52.70
2018-02-14T16:46:32.380Z,42.78
2018-02-14T16:48:58.622Z,42.65
2018-02-14T16:51:24.894Z,40.55
2018-02-14T16:53:51.166Z,31.50
2018-02-14T16:56:18.120Z,41.40
2018-02-14T16:58:44.366Z,32.72
2018-02-14T17:01:11.370Z,41.92
2018-02-14T17:03:37.657Z,34.83
2018-02-14T17:06:04.862Z,41.03
2018-02-14T17:08:31.108Z,42.80
2018-02-14T17:10:57.404Z,37.10
2018-02-14T17:13:23.600Z,35.92
2018-02-14T17:15:49.839Z,44.38
2018-02-14T17:18:16.090Z,50.40
2018-02-14T17:20:42.350Z,43.17
2018-02-14T17:23:08.702Z,36.75
2018-02-14T17:25:35.004Z,41.22
2018-02-14T17:28:01.317Z,37.47
2018-02-14T17:30:27.604Z,43.25
2018-02-14T17:32:53.893Z,38.22
2018-02-14T17:35:20.248Z,36.60
2018-02-14T17:37:47.220Z,38.85
2018-02-14T17:40:13.454Z,38.55
2018-02-14T17:42:39.756Z,36.22
2018-02-14T17:45:06.005Z,37.10
2018-02-14T17:47:33.019Z,37.17
2018-02-14T17:49:59.289Z,37.53
2018-02-14T17:52:26.305Z,33.42
2018-02-14T17:54:52.543Z,34.95
2018-02-14T17:57:18.783Z,38.58
2018-02-14T17:59:45.023Z,35.08
2018-02-14T18:02:11.263Z,42.58
2018-02-14T18:04:37.545Z,38.03
2018-02-14T18:07:03.780Z,34.80
2018-02-14T18:09:30.069Z,36.35
2018-02-14T18:11:56.323Z,34.63
2018-02-14T18:14:22.573Z,38.47
2018-02-14T18:16:48.839Z,35.03
2018-02-14T18:19:15.145Z,30.67
2018-02-14T18:21:41.457Z,45.75
2018-02-14T18:24:08.469Z,41.10
2018-02-14T18:26:34.789Z,37.33
2018-02-14T18:29:01.103Z,33.55
2018-02-14T18:31:28.213Z,43.38
2018-02-14T18:33:54.495Z,33.92
2018-02-14T18:36:21.528Z,36.22
2018-02-14T18:38:47.827Z,35.63
2018-02-14T18:41:14.176Z,38.90
2018-02-14T18:43:40.482Z,36.83
2018-02-14T18:46:06.786Z,37.83
2018-02-14T18:48:33.191Z,41.70
2018-02-14T18:50:59.528Z,30.48
2018-02-14T18:53:26.530Z,35.40
2018-02-14T18:55:52.864Z,35.92
2018-02-14T18:58:20.126Z,41.08
2018-02-14T19:00:46.422Z,38.80
2018-02-14T19:03:12.698Z,50.55
2018-02-14T19:05:39.063Z,41.60
2018-02-14T19:08:05.382Z,40.53
2018-02-14T19:10:31.668Z,46.40
2018-02-14T19:12:57.956Z,37.58
2018-02-14T19:15:25.080Z,37.28
2018-02-14T19:17:51.418Z,39.50
2018-02-14T19:20:17.704Z,45.35
2018-02-14T19:22:44.008Z,37.97
2018-02-14T19:25:10.315Z,46.78
2018-02-14T19:27:36.589Z,44.20
2018-02-14T19:30:02.928Z,50.70
2018-02-14T19:32:29.226Z,53.33
2018-02-14T19:34:55.522Z,43.78
2018-02-14T19:37:21.848Z,41.80
2018-02-14T19:39:48.109Z,46.25
2018-02-14T19:42:15.349Z,42.05
2018-02-14T19:44:41.604Z,42.85
2018-02-14T19:47:07.946Z,51.03
2018-02-14T19:49:34.243Z,52.85
2018-02-14T19:52:00.541Z,37.88
2018-02-14T19:54:27.595Z,54.05
2018-02-14T19:56:54.651Z,44.80
2018-02-14T19:59:20.955Z,45.60
2018-02-14T20:01:47.298Z,43.72
2018-02-14T20:04:13.602Z,43.45
2018-02-14T20:06:40.663Z,55.72
2018-02-14T20:09:07.793Z,59.45
2018-02-14T20:11:35.061Z,83.07
2018-02-14T20:14:02.131Z,58.50
2018-02-14T20:16:29.150Z,52.50
2018-02-14T20:18:55.463Z,47.10
2018-02-14T20:21:21.738Z,50.90
2018-02-14T20:23:48.283Z,43.72
2018-02-14T20:26:14.605Z,39.03
2018-02-14T20:28:40.909Z,44.33
2018-02-14T20:31:07.223Z,45.65
2018-02-14T20:33:34.345Z,43.80
2018-02-14T20:36:00.683Z,47.72
2018-02-14T20:38:28.045Z,53.08
2018-02-14T20:40:54.350Z,53.90
2018-02-14T20:43:20.609Z,43.40
2018-02-14T20:45:47.680Z,46.28
2018-02-14T20:48:14.690Z,43.85
2018-02-14T20:50:41.004Z,44.70
2018-02-14T20:53:07.379Z,44.90
2018-02-14T20:55:33.707Z,54.03
2018-02-14T20:58:00.022Z,53.72
2018-02-14T21:00:26.393Z,46.28
2018-02-14T21:02:52.664Z,53.25
2018-02-14T21:05:19.748Z,47.78
2018-02-14T21:07:46.043Z,54.00
2018-02-14T21:10:12.633Z,43.20
2018-02-14T21:12:39.688Z,50.63
2018-02-14T21:15:05.978Z,51.58
2018-02-14T21:17:32.278Z,57.88
2018-02-14T21:19:59.284Z,53.60
2018-02-14T21:22:25.596Z,54.67
2018-02-14T21:24:51.870Z,57.90
2018-02-14T21:27:18.173Z,66.10
2018-02-14T21:29:45.148Z,64.12
2018-02-14T21:32:11.368Z,57.83
2018-02-14T21:34:38.394Z,62.10
2018-02-14T21:37:04.667Z,69.22
2018-02-14T21:39:30.948Z,63.45
2018-02-14T21:41:57.195Z,54.10
2018-02-14T21:44:23.442Z,58.35
2018-02-14T21:46:49.673Z,64.18
2018-02-14T21:49:15.916Z,57.33
2018-02-14T21:51:42.227Z,62.65
2018-02-14T21:54:08.481Z,64.93
2018-02-14T21:56:34.731Z,60.67
2018-02-14T21:59:00.968Z,66.20
2018-02-14T22:01:27.193Z,63.08
2018-02-14T22:03:53.461Z,59.47
2018-02-14T22:06:19.715Z,61.13
2018-02-14T22:08:46.233Z,68.68
2018-02-14T22:11:12.450Z,56.22
2018-02-14T22:13:39.426Z,70.60
2018-02-14T22:16:05.663Z,57.30
2018-02-14T22:18:31.885Z,63.85
2018-02-14T22:20:59.127Z,67.12
2018-02-14T22:23:25.356Z,66.75
2018-02-14T22:25:51.603Z,55.63
2018-02-14T22:28:17.877Z,53.33
2018-02-14T22:30:44.835Z,65.28
2018-02-14T22:33:11.829Z,63.30
2018-02-14T22:35:38.090Z,69.87
2018-02-14T22:38:04.324Z,83.78
2018-02-14T22:40:30.566Z,75.55
2018-02-14T22:42:56.790Z,75.82
2018-02-14T22:45:23.015Z,60.90
2018-02-14T22:47:49.225Z,58.92
2018-02-14T22:50:16.176Z,58.45
2018-02-14T22:52:43.164Z,65.57
2018-02-14T22:55:09.393Z,53.25
2018-02-14T22:57:35.606Z,60.72
2018-02-14T23:00:01.856Z,63.05
2018-02-14T23:02:28.104Z,59.80
2018-02-14T23:04:54.330Z,58.00
2018-02-14T23:07:20.546Z,64.07
2018-02-14T23:09:46.770Z,61.90
2018-02-14T23:12:12.984Z,50.05
2018-02-14T23:14:39.207Z,54.00
2018-02-14T23:17:06.183Z,55.90
2018-02-14T23:19:32.418Z,55.83
2018-02-14T23:21:58.624Z,56.85
2018-02-14T23:24:24.828Z,59.70
2018-02-14T23:26:51.068Z,51.70
2018-02-14T23:29:17.313Z,62.83
2018-02-14T23:31:43.533Z,66.43
2018-02-14T23:34:09.776Z,53.83
2018-02-14T23:36:35.988Z,70.10
2018-02-14T23:39:03.026Z,65.70
2018-02-14T23:41:29.263Z,56.70
2018-02-14T23:43:55.496Z,57.88
2018-02-14T23:46:21.712Z,56.20
2018-02-14T23:48:47.951Z,52.47
2018-02-14T23:51:14.172Z,53.33
2018-02-14T23:53:41.104Z,54.88
2018-02-14T23:56:08.060Z,63.75
2018-02-14T23:58:34.996Z,47.05
